sensor_id;sensor_type;location;lat;lon;timestamp;pressure;altitude;pressure_sealevel;temperature;humidity
69306;BME280;56427;51.580;4.656;2022-10-15T00:02:23;100729.78;;;12.16;100.00
69306;BME280;56427;51.580;4.656;2022-10-15T00:04:48;100727.06;;;12.18;100.00
69306;BME280;56427;51.580;4.656;2022-10-15T00:07:13;100730.88;;;12.23;100.00
69306;BME280;56427;51.580;4.656;2022-10-15T00:09:39;100735.13;;;12.24;100.00
69306;BME280;56427;51.580;4.656;2022-10-15T00:12:04;100737.59;;;12.16;100.00
69306;BME280;56427;51.580;4.656;2022-10-15T00:14:30;100732.94;;;12.20;100.00
69306;BME280;56427;51.580;4.656;2022-10-15T00:16:55;100721.84;;;12.27;100.00
69306;BME280;56427;51.580;4.656;2022-10-15T00:19:20;100732.22;;;12.27;100.00
69306;BME280;56427;51.580;4.656;2022-10-15T00:21:45;100728.25;;;12.23;100.00
69306;BME280;56427;51.580;4.656;2022-10-15T00:24:11;100727.16;;;12.26;100.00
69306;BME280;56427;51.580;4.656;2022-10-15T00:26:36;100728.66;;;12.28;100.00
69306;BME280;56427;51.580;4.656;2022-10-15T00:29:02;100733.84;;;12.28;100.00
69306;BME280;56427;51.580;4.656;2022-10-15T00:31:29;100731.78;;;12.42;100.00
69306;BME280;56427;51.580;4.656;2022-10-15T00:33:57;100732.22;;;12.27;100.00
69306;BME280;56427;51.580;4.656;2022-10-15T00:36:25;100732.47;;;12.44;100.00
69306;BME280;56427;51.580;4.656;2022-10-15T00:38:51;100728.75;;;12.37;100.00
69306;BME280;56427;51.580;4.656;2022-10-15T00:41:30;100729.31;;;12.40;100.00
69306;BME280;56427;51.580;4.656;2022-10-15T00:44:01;100720.69;;;12.40;100.00
69306;BME280;56427;51.580;4.656;2022-10-15T00:46:31;100730.41;;;12.38;100.00
69306;BME280;56427;51.580;4.656;2022-10-15T00:51:58;100728.75;;;12.46;100.00
69306;BME280;56427;51.580;4.656;2022-10-15T00:54:26;100730.38;;;12.47;100.00
69306;BME280;56427;51.580;4.656;2022-10-15T00:56:54;100735.06;;;12.44;100.00
69306;BME280;56427;51.580;4.656;2022-10-15T00:59:21;100732.47;;;12.44;100.00
69306;BME280;56427;51.580;4.656;2022-10-15T01:01:48;100733.13;;;12.46;100.00
69306;BME280;56427;51.580;4.656;2022-10-15T01:04:13;100732.59;;;12.42;100.00
69306;BME280;56427;51.580;4.656;2022-10-15T01:06:39;100733.97;;;12.37;100.00
69306;BME280;56427;51.580;4.656;2022-10-15T01:09:05;100732.59;;;12.42;100.00
69306;BME280;56427;51.580;4.656;2022-10-15T01:11:44;100723.97;;;12.42;100.00
69306;BME280;56427;51.580;4.656;2022-10-15T01:14:44;100716.59;;;12.37;100.00
69306;BME280;56427;51.580;4.656;2022-10-15T01:17:37;100722.47;;;12.39;100.00
69306;BME280;56427;51.580;4.656;2022-10-15T01:23:27;100715.59;;;12.48;100.00
69306;BME280;56427;51.580;4.656;2022-10-15T01:32:37;100711.06;;;12.50;100.00
69306;BME280;56427;51.580;4.656;2022-10-15T01:35:25;100692.88;;;12.40;100.00
69306;BME280;56427;51.580;4.656;2022-10-15T01:38:02;100700.13;;;12.37;100.00
69306;BME280;56427;51.580;4.656;2022-10-15T01:40:58;100699.34;;;12.36;100.00
69306;BME280;56427;51.580;4.656;2022-10-15T01:43:33;100688.63;;;12.39;100.00
69306;BME280;56427;51.580;4.656;2022-10-15T01:46:05;100690.44;;;12.39;100.00
69306;BME280;56427;51.580;4.656;2022-10-15T01:48:33;100695.91;;;12.36;100.00
69306;BME280;56427;51.580;4.656;2022-10-15T01:51:03;100689.47;;;12.30;100.00
69306;BME280;56427;51.580;4.656;2022-10-15T01:53:30;100691.69;;;12.25;100.00
69306;BME280;56427;51.580;4.656;2022-10-15T01:56:05;100680.63;;;12.23;100.00
69306;BME280;56427;51.580;4.656;2022-10-15T01:58:35;100683.09;;;12.14;100.00
69306;BME280;56427;51.580;4.656;2022-10-15T02:01:02;100680.66;;;12.03;100.00
69306;BME280;56427;51.580;4.656;2022-10-15T02:03:28;100685.88;;;12.03;100.00
69306;BME280;56427;51.580;4.656;2022-10-15T02:06:00;100671.38;;;12.01;100.00
69306;BME280;56427;51.580;4.656;2022-10-15T02:08:38;100671.81;;;11.96;100.00
69306;BME280;56427;51.580;4.656;2022-10-15T02:11:12;100662.06;;;11.98;100.00
69306;BME280;56427;51.580;4.656;2022-10-15T02:19:05;100654.66;;;12.03;100.00
69306;BME280;56427;51.580;4.656;2022-10-15T02:22:31;100646.59;;;11.96;100.00
69306;BME280;56427;51.580;4.656;2022-10-15T02:24:38;100645.22;;;12.02;100.00
69306;BME280;56427;51.580;4.656;2022-10-15T02:27:06;100630.19;;;11.96;100.00
69306;BME280;56427;51.580;4.656;2022-10-15T02:29:33;100635.81;;;11.82;100.00
69306;BME280;56427;51.580;4.656;2022-10-15T02:32:02;100640.88;;;11.83;100.00
69306;BME280;56427;51.580;4.656;2022-10-15T02:34:31;100634.84;;;11.83;100.00
69306;BME280;56427;51.580;4.656;2022-10-15T02:36:57;100632.28;;;11.73;100.00
69306;BME280;56427;51.580;4.656;2022-10-15T02:39:25;100626.38;;;11.71;100.00
69306;BME280;56427;51.580;4.656;2022-10-15T02:41:51;100624.59;;;11.81;100.00
69306;BME280;56427;51.580;4.656;2022-10-15T02:44:17;100614.22;;;11.71;100.00
69306;BME280;56427;51.580;4.656;2022-10-15T02:46:43;100616.00;;;11.61;100.00
69306;BME280;56427;51.580;4.656;2022-10-15T02:49:08;100617.09;;;11.58;100.00
69306;BME280;56427;51.580;4.656;2022-10-15T02:51:34;100602.88;;;11.53;100.00
69306;BME280;56427;51.580;4.656;2022-10-15T02:54:01;100602.88;;;11.53;100.00
69306;BME280;56427;51.580;4.656;2022-10-15T02:56:28;100606.84;;;11.47;100.00
69306;BME280;56427;51.580;4.656;2022-10-15T02:58:53;100594.28;;;11.42;100.00
69306;BME280;56427;51.580;4.656;2022-10-15T03:01:19;100600.00;;;11.46;100.00
69306;BME280;56427;51.580;4.656;2022-10-15T03:03:44;100596.19;;;11.40;100.00
69306;BME280;56427;51.580;4.656;2022-10-15T03:06:09;100593.63;;;11.31;100.00
69306;BME280;56427;51.580;4.656;2022-10-15T03:08:35;100594.69;;;11.38;100.00
69306;BME280;56427;51.580;4.656;2022-10-15T03:11:00;100591.69;;;11.33;100.00
69306;BME280;56427;51.580;4.656;2022-10-15T03:13:27;100591.28;;;11.28;100.00
69306;BME280;56427;51.580;4.656;2022-10-15T03:15:52;100587.34;;;11.33;100.00
69306;BME280;56427;51.580;4.656;2022-10-15T03:18:17;100596.75;;;11.24;100.00
69306;BME280;56427;51.580;4.656;2022-10-15T03:20:43;100596.88;;;11.23;100.00
69306;BME280;56427;51.580;4.656;2022-10-15T03:23:08;100595.66;;;11.27;100.00
69306;BME280;56427;51.580;4.656;2022-10-15T03:25:33;100597.28;;;11.28;100.00
69306;BME280;56427;51.580;4.656;2022-10-15T03:27:59;100587.75;;;11.29;100.00
69306;BME280;56427;51.580;4.656;2022-10-15T03:30:24;100587.75;;;11.29;100.00
69306;BME280;56427;51.580;4.656;2022-10-15T03:32:49;100587.88;;;11.27;100.00
69306;BME280;56427;51.580;4.656;2022-10-15T03:35:15;100598.13;;;11.29;100.00
69306;BME280;56427;51.580;4.656;2022-10-15T03:37:40;100585.97;;;11.29;100.00
69306;BME280;56427;51.580;4.656;2022-10-15T03:40:06;100594.16;;;11.34;100.00
69306;BME280;56427;51.580;4.656;2022-10-15T03:42:31;100597.72;;;11.23;100.00
69306;BME280;56427;51.580;4.656;2022-10-15T03:44:57;100601.28;;;11.22;100.00
69306;BME280;56427;51.580;4.656;2022-10-15T03:47:22;100598.41;;;11.26;100.00
69306;BME280;56427;51.580;4.656;2022-10-15T03:49:47;100595.25;;;11.41;100.00
69306;BME280;56427;51.580;4.656;2022-10-15T03:52:13;100596.75;;;11.34;100.00
69306;BME280;56427;51.580;4.656;2022-10-15T03:54:38;100598.66;;;11.42;100.00
69306;BME280;56427;51.580;4.656;2022-10-15T03:57:04;100600.19;;;11.35;100.00
69306;BME280;56427;51.580;4.656;2022-10-15T03:59:29;100602.63;;;11.36;100.00
69306;BME280;56427;51.580;4.656;2022-10-15T04:01:55;100610.84;;;11.32;100.00
69306;BME280;56427;51.580;4.656;2022-10-15T04:04:20;100617.25;;;11.37;100.00
69306;BME280;56427;51.580;4.656;2022-10-15T04:06:45;100615.06;;;11.33;100.00
69306;BME280;56427;51.580;4.656;2022-10-15T04:09:12;100617.41;;;11.36;100.00
69306;BME280;56427;51.580;4.656;2022-10-15T04:11:37;100612.19;;;11.36;100.00
69306;BME280;56427;51.580;4.656;2022-10-15T04:14:04;100618.22;;;11.36;100.00
69306;BME280;56427;51.580;4.656;2022-10-15T04:16:29;100604.41;;;11.36;100.00
69306;BME280;56427;51.580;4.656;2022-10-15T04:18:54;100605.91;;;11.48;100.00
69306;BME280;56427;51.580;4.656;2022-10-15T04:21:20;100606.44;;;11.52;100.00
69306;BME280;56427;51.580;4.656;2022-10-15T04:23:45;100596.72;;;11.54;100.00
69306;BME280;56427;51.580;4.656;2022-10-15T04:26:10;100599.19;;;11.46;100.00
69306;BME280;56427;51.580;4.656;2022-10-15T04:28:36;100592.78;;;11.50;100.00
69306;BME280;56427;51.580;4.656;2022-10-15T04:31:01;100589.75;;;11.54;100.00
69306;BME280;56427;51.580;4.656;2022-10-15T04:33:27;100589.31;;;11.59;100.00
69306;BME280;56427;51.580;4.656;2022-10-15T04:38:27;100591.66;;;11.52;100.00
69306;BME280;56427;51.580;4.656;2022-10-15T04:41:07;100596.44;;;11.57;100.00
69306;BME280;56427;51.580;4.656;2022-10-15T04:43:34;100586.47;;;11.52;100.00
69306;BME280;56427;51.580;4.656;2022-10-15T04:46:01;100585.78;;;11.60;100.00
69306;BME280;56427;51.580;4.656;2022-10-15T04:48:28;100588.50;;;11.68;100.00
69306;BME280;56427;51.580;4.656;2022-10-15T04:50:54;100587.50;;;11.69;100.00
69306;BME280;56427;51.580;4.656;2022-10-15T04:53:20;100585.50;;;11.63;100.00
69306;BME280;56427;51.580;4.656;2022-10-15T04:55:45;100586.97;;;11.66;100.00
69306;BME280;56427;51.580;4.656;2022-10-15T04:58:11;100584.25;;;11.67;100.00
69306;BME280;56427;51.580;4.656;2022-10-15T05:00:37;100583.16;;;11.70;100.00
69306;BME280;56427;51.580;4.656;2022-10-15T05:03:04;100584.66;;;11.63;100.00
69306;BME280;56427;51.580;4.656;2022-10-15T05:05:30;100577.69;;;11.63;100.00
69306;BME280;56427;51.580;4.656;2022-10-15T05:08:00;100582.38;;;11.59;100.00
69306;BME280;56427;51.580;4.656;2022-10-15T05:10:26;100579.88;;;11.68;100.00
69306;BME280;56427;51.580;4.656;2022-10-15T05:12:51;100576.41;;;11.77;100.00
69306;BME280;56427;51.580;4.656;2022-10-15T05:15:16;100573.00;;;11.76;100.00
69306;BME280;56427;51.580;4.656;2022-10-15T05:17:41;100573.69;;;11.78;100.00
69306;BME280;56427;51.580;4.656;2022-10-15T05:20:07;100578.22;;;11.67;100.00
69306;BME280;56427;51.580;4.656;2022-10-15T05:22:32;100570.97;;;11.70;100.00
69306;BME280;56427;51.580;4.656;2022-10-15T05:24:58;100574.13;;;11.64;100.00
69306;BME280;56427;51.580;4.656;2022-10-15T05:27:23;100570.81;;;11.72;100.00
69306;BME280;56427;51.580;4.656;2022-10-15T05:29:48;100574.34;;;11.81;100.00
69306;BME280;56427;51.580;4.656;2022-10-15T05:32:14;100575.59;;;11.76;100.00
69306;BME280;56427;51.580;4.656;2022-10-15T05:34:39;100579.81;;;11.77;100.00
69306;BME280;56427;51.580;4.656;2022-10-15T05:37:05;100572.19;;;11.76;100.00
69306;BME280;56427;51.580;4.656;2022-10-15T05:39:30;100568.72;;;11.85;100.00
69306;BME280;56427;51.580;4.656;2022-10-15T05:41:56;100575.06;;;11.83;100.00
69306;BME280;56427;51.580;4.656;2022-10-15T05:44:22;100571.84;;;11.89;100.00
69306;BME280;56427;51.580;4.656;2022-10-15T05:46:47;100567.34;;;11.91;100.00
69306;BME280;56427;51.580;4.656;2022-10-15T05:49:12;100566.78;;;11.87;100.00
69306;BME280;56427;51.580;4.656;2022-10-15T05:51:38;100563.00;;;11.91;100.00
69306;BME280;56427;51.580;4.656;2022-10-15T05:54:03;100567.50;;;11.99;100.00
69306;BME280;56427;51.580;4.656;2022-10-15T05:56:28;100565.31;;;11.94;100.00
69306;BME280;56427;51.580;4.656;2022-10-15T05:58:54;100561.06;;;11.93;100.00
69306;BME280;56427;51.580;4.656;2022-10-15T06:01:19;100564.34;;;11.95;100.00
69306;BME280;56427;51.580;4.656;2022-10-15T06:03:45;100561.72;;;11.95;100.00
69306;BME280;56427;51.580;4.656;2022-10-15T06:06:22;100561.16;;;12.02;100.00
69306;BME280;56427;51.580;4.656;2022-10-15T06:08:48;100572.47;;;12.10;100.00
69306;BME280;56427;51.580;4.656;2022-10-15T06:11:14;100578.41;;;12.03;100.00
69306;BME280;56427;51.580;4.656;2022-10-15T06:13:41;100576.34;;;12.06;100.00
69306;BME280;56427;51.580;4.656;2022-10-15T06:16:07;100573.47;;;12.09;100.00
69306;BME280;56427;51.580;4.656;2022-10-15T06:18:33;100571.00;;;12.08;100.00
69306;BME280;56427;51.580;4.656;2022-10-15T06:20:58;100568.94;;;12.11;100.00
69306;BME280;56427;51.580;4.656;2022-10-15T06:23:23;100572.06;;;12.15;100.00
69306;BME280;56427;51.580;4.656;2022-10-15T06:25:49;100581.88;;;12.21;100.00
69306;BME280;56427;51.580;4.656;2022-10-15T06:28:15;100571.09;;;12.16;100.00
69306;BME280;56427;51.580;4.656;2022-10-15T06:30:41;100571.47;;;12.21;100.00
69306;BME280;56427;51.580;4.656;2022-10-15T06:33:06;100567.78;;;12.24;100.00
69306;BME280;56427;51.580;4.656;2022-10-15T06:35:32;100573.09;;;12.32;100.00
69306;BME280;56427;51.580;4.656;2022-10-15T06:38:01;100570.63;;;12.30;100.00
69306;BME280;56427;51.580;4.656;2022-10-15T06:40:27;100559.75;;;12.35;100.00
69306;BME280;56427;51.580;4.656;2022-10-15T06:42:52;100565.28;;;12.32;100.00
69306;BME280;56427;51.580;4.656;2022-10-15T06:45:18;100563.78;;;12.29;100.00
69306;BME280;56427;51.580;4.656;2022-10-15T06:47:43;100560.44;;;12.37;100.00
69306;BME280;56427;51.580;4.656;2022-10-15T06:50:09;100553.69;;;12.44;100.00
69306;BME280;56427;51.580;4.656;2022-10-15T06:52:35;100549.84;;;12.48;100.00
69306;BME280;56427;51.580;4.656;2022-10-15T06:55:00;100543.94;;;12.46;100.00
69306;BME280;56427;51.580;4.656;2022-10-15T06:57:29;100541.19;;;12.48;100.00
69306;BME280;56427;51.580;4.656;2022-10-15T06:59:54;100542.97;;;12.47;100.00
69306;BME280;56427;51.580;4.656;2022-10-15T07:02:19;100552.75;;;12.63;100.00
69306;BME280;56427;51.580;4.656;2022-10-15T07:04:45;100539.50;;;12.57;100.00
69306;BME280;56427;51.580;4.656;2022-10-15T07:07:11;100548.22;;;12.65;100.00
69306;BME280;56427;51.580;4.656;2022-10-15T07:09:36;100543.97;;;12.64;100.00
69306;BME280;56427;51.580;4.656;2022-10-15T07:12:02;100540.41;;;12.83;100.00
69306;BME280;56427;51.580;4.656;2022-10-15T07:14:27;100533.84;;;12.79;100.00
69306;BME280;56427;51.580;4.656;2022-10-15T07:16:53;100538.97;;;12.89;100.00
69306;BME280;56427;51.580;4.656;2022-10-15T07:19:18;100525.78;;;12.91;100.00
69306;BME280;56427;51.580;4.656;2022-10-15T07:21:43;100532.00;;;12.89;100.00
69306;BME280;56427;51.580;4.656;2022-10-15T07:24:09;100528.47;;;12.81;100.00
69306;BME280;56427;51.580;4.656;2022-10-15T07:26:34;100524.47;;;13.04;100.00
69306;BME280;56427;51.580;4.656;2022-10-15T07:28:59;100528.03;;;13.03;100.00
69306;BME280;56427;51.580;4.656;2022-10-15T07:31:25;100531.59;;;13.02;100.00
69306;BME280;56427;51.580;4.656;2022-10-15T07:33:51;100532.56;;;13.01;100.00
69306;BME280;56427;51.580;4.656;2022-10-15T07:36:16;100534.25;;;13.11;100.00
69306;BME280;56427;51.580;4.656;2022-10-15T07:38:42;100540.13;;;13.31;100.00
69306;BME280;56427;51.580;4.656;2022-10-15T07:41:09;100533.34;;;13.64;100.00
69306;BME280;56427;51.580;4.656;2022-10-15T07:43:35;100530.81;;;13.80;100.00
69306;BME280;56427;51.580;4.656;2022-10-15T07:46:01;100531.72;;;14.65;100.00
69306;BME280;56427;51.580;4.656;2022-10-15T07:48:27;100522.94;;;14.90;100.00
69306;BME280;56427;51.580;4.656;2022-10-15T07:50:57;100508.88;;;14.83;100.00
69306;BME280;56427;51.580;4.656;2022-10-15T07:53:23;100513.97;;;14.17;100.00
69306;BME280;56427;51.580;4.656;2022-10-15T07:55:48;100510.66;;;13.99;100.00
69306;BME280;56427;51.580;4.656;2022-10-15T07:58:14;100512.69;;;13.79;100.00
69306;BME280;56427;51.580;4.656;2022-10-15T08:00:39;100501.44;;;13.70;100.00
69306;BME280;56427;51.580;4.656;2022-10-15T08:03:04;100504.88;;;13.79;100.00
69306;BME280;56427;51.580;4.656;2022-10-15T08:05:29;100489.66;;;13.66;100.00
69306;BME280;56427;51.580;4.656;2022-10-15T08:07:55;100493.06;;;13.67;100.00
69306;BME280;56427;51.580;4.656;2022-10-15T08:10:20;100495.09;;;13.81;100.00
69306;BME280;56427;51.580;4.656;2022-10-15T08:12:46;100486.16;;;13.49;100.00
69306;BME280;56427;51.580;4.656;2022-10-15T08:15:11;100490.31;;;13.68;100.00
69306;BME280;56427;51.580;4.656;2022-10-15T08:17:36;100487.75;;;13.76;100.00
69306;BME280;56427;51.580;4.656;2022-10-15T08:20:02;100485.16;;;13.85;100.00
69306;BME280;56427;51.580;4.656;2022-10-15T08:22:27;100490.47;;;14.09;100.00
69306;BME280;56427;51.580;4.656;2022-10-15T08:24:53;100484.25;;;14.02;100.00
69306;BME280;56427;51.580;4.656;2022-10-15T08:27:19;100481.81;;;14.01;100.00
69306;BME280;56427;51.580;4.656;2022-10-15T08:29:44;100483.50;;;14.18;100.00
69306;BME280;56427;51.580;4.656;2022-10-15T08:32:11;100481.50;;;14.12;100.00
69306;BME280;56427;51.580;4.656;2022-10-15T08:34:36;100475.44;;;13.95;100.00
69306;BME280;56427;51.580;4.656;2022-10-15T08:37:02;100479.75;;;13.78;100.00
69306;BME280;56427;51.580;4.656;2022-10-15T08:39:27;100466.75;;;13.86;100.00
69306;BME280;56427;51.580;4.656;2022-10-15T08:41:56;100472.03;;;13.60;100.00
69306;BME280;56427;51.580;4.656;2022-10-15T08:44:28;100479.34;;;13.56;100.00
69306;BME280;56427;51.580;4.656;2022-10-15T08:47:13;100462.84;;;13.48;100.00
69306;BME280;56427;51.580;4.656;2022-10-15T08:49:55;100473.16;;;13.31;100.00
69306;BME280;56427;51.580;4.656;2022-10-15T08:52:32;100457.91;;;13.36;100.00
69306;BME280;56427;51.580;4.656;2022-10-15T08:55:01;100460.28;;;13.30;100.00
69306;BME280;56427;51.580;4.656;2022-10-15T09:03:00;100461.06;;;13.48;100.00
69306;BME280;56427;51.580;4.656;2022-10-15T09:05:50;100452.88;;;13.43;100.00
69306;BME280;56427;51.580;4.656;2022-10-15T09:08:39;100456.06;;;13.63;100.00
69306;BME280;56427;51.580;4.656;2022-10-15T09:11:22;100463.41;;;13.59;100.00
69306;BME280;56427;51.580;4.656;2022-10-15T09:13:51;100463.84;;;13.55;100.00
69306;BME280;56427;51.580;4.656;2022-10-15T09:16:21;100458.88;;;13.70;100.00
69306;BME280;56427;51.580;4.656;2022-10-15T09:18:50;100456.13;;;13.79;100.00
69306;BME280;56427;51.580;4.656;2022-10-15T09:21:17;100451.69;;;13.64;100.00
69306;BME280;56427;51.580;4.656;2022-10-15T09:23:43;100452.22;;;13.75;100.00
69306;BME280;56427;51.580;4.656;2022-10-15T09:28:43;100450.19;;;13.61;100.00
69306;BME280;56427;51.580;4.656;2022-10-15T09:31:12;100448.16;;;13.81;100.00
69306;BME280;56427;51.580;4.656;2022-10-15T09:33:46;100446.63;;;13.62;100.00
69306;BME280;56427;51.580;4.656;2022-10-15T09:36:32;100439.50;;;13.72;100.00
69306;BME280;56427;51.580;4.656;2022-10-15T09:44:45;100439.84;;;13.86;100.00
69306;BME280;56427;51.580;4.656;2022-10-15T09:47:24;100431.69;;;13.80;100.00
69306;BME280;56427;51.580;4.656;2022-10-15T09:49:49;100429.16;;;14.05;100.00
69306;BME280;56427;51.580;4.656;2022-10-15T09:52:27;100432.25;;;14.09;100.00
69306;BME280;56427;51.580;4.656;2022-10-15T09:57:30;100429.16;;;14.22;100.00
69306;BME280;56427;51.580;4.656;2022-10-15T09:59:58;100423.94;;;14.05;100.00
69306;BME280;56427;51.580;4.656;2022-10-15T10:02:28;100432.09;;;14.18;100.00
69306;BME280;56427;51.580;4.656;2022-10-15T10:04:54;100426.72;;;14.12;100.00
69306;BME280;56427;51.580;4.656;2022-10-15T10:09:55;100428.22;;;14.31;100.00
69306;BME280;56427;51.580;4.656;2022-10-15T10:12:24;100428.00;;;14.24;100.00
69306;BME280;56427;51.580;4.656;2022-10-15T10:14:59;100431.94;;;14.20;100.00
69306;BME280;56427;51.580;4.656;2022-10-15T10:17:27;100426.25;;;14.33;100.00
69306;BME280;56427;51.580;4.656;2022-10-15T10:28:04;100433.44;;;14.47;100.00
69306;BME280;56427;51.580;4.656;2022-10-15T10:30:35;100436.53;;;14.43;100.00
69306;BME280;56427;51.580;4.656;2022-10-15T10:33:02;100434.41;;;14.38;100.00
69306;BME280;56427;51.580;4.656;2022-10-15T10:35:34;100436.88;;;14.48;100.00
69306;BME280;56427;51.580;4.656;2022-10-15T10:38:01;100438.31;;;14.50;100.00
69306;BME280;56427;51.580;4.656;2022-10-15T10:40:29;100438.66;;;14.56;100.00
69306;BME280;56427;51.580;4.656;2022-10-15T10:45:55;100436.72;;;14.82;100.00
69306;BME280;56427;51.580;4.656;2022-10-15T10:48:27;100438.19;;;14.77;100.00
69306;BME280;56427;51.580;4.656;2022-10-15T10:51:23;100425.09;;;14.85;100.00
69306;BME280;56427;51.580;4.656;2022-10-15T10:53:55;100426.59;;;14.87;100.00
69306;BME280;56427;51.580;4.656;2022-10-15T10:56:47;100429.81;;;14.98;100.00
69306;BME280;56427;51.580;4.656;2022-10-15T11:01:38;100426.69;;;15.19;100.00
69306;BME280;56427;51.580;4.656;2022-10-15T11:04:10;100426.97;;;15.24;100.00
69306;BME280;56427;51.580;4.656;2022-10-15T11:15:23;100426.44;;;15.45;100.00
69306;BME280;56427;51.580;4.656;2022-10-15T11:20:50;100422.56;;;15.64;100.00
69306;BME280;56427;51.580;4.656;2022-10-15T11:23:39;100425.84;;;15.66;100.00
69306;BME280;56427;51.580;4.656;2022-10-15T11:28:59;100430.31;;;15.89;100.00
69306;BME280;56427;51.580;4.656;2022-10-15T11:31:40;100428.50;;;15.97;100.00
69306;BME280;56427;51.580;4.656;2022-10-15T11:34:34;100431.34;;;15.88;100.00
69306;BME280;56427;51.580;4.656;2022-10-15T11:42:57;100435.56;;;15.89;100.00
69306;BME280;56427;51.580;4.656;2022-10-15T11:45:42;100431.44;;;15.94;100.00
69306;BME280;56427;51.580;4.656;2022-10-15T11:51:05;100439.50;;;16.39;100.00
69306;BME280;56427;51.580;4.656;2022-10-15T11:56:32;100440.81;;;16.58;100.00
69306;BME280;56427;51.580;4.656;2022-10-15T11:59:03;100428.56;;;16.73;100.00
69306;BME280;56427;51.580;4.656;2022-10-15T12:01:47;100433.44;;;16.62;100.00
69306;BME280;56427;51.580;4.656;2022-10-15T12:04:19;100443.47;;;16.35;100.00
69306;BME280;56427;51.580;4.656;2022-10-15T12:06:51;100437.84;;;16.38;100.00
69306;BME280;56427;51.580;4.656;2022-10-15T12:09:25;100441.69;;;16.50;100.00
69306;BME280;56427;51.580;4.656;2022-10-15T12:12:02;100443.81;;;16.55;100.00
69306;BME280;56427;51.580;4.656;2022-10-15T12:14:40;100443.84;;;16.70;100.00
69306;BME280;56427;51.580;4.656;2022-10-15T12:20:00;100451.19;;;16.51;100.00
69306;BME280;56427;51.580;4.656;2022-10-15T12:22:36;100445.84;;;16.45;100.00
69306;BME280;56427;51.580;4.656;2022-10-15T12:25:03;100446.31;;;16.25;100.00
69306;BME280;56427;51.580;4.656;2022-10-15T12:27:32;100451.47;;;16.56;100.00
69306;BME280;56427;51.580;4.656;2022-10-15T12:32:44;100456.47;;;16.66;100.00
69306;BME280;56427;51.580;4.656;2022-10-15T12:35:22;100458.00;;;16.99;100.00
69306;BME280;56427;51.580;4.656;2022-10-15T12:37:48;100460.88;;;16.89;100.00
69306;BME280;56427;51.580;4.656;2022-10-15T12:43:00;100498.09;;;16.38;100.00
69306;BME280;56427;51.580;4.656;2022-10-15T12:45:38;100502.94;;;15.39;100.00
69306;BME280;56427;51.580;4.656;2022-10-15T12:50:31;100499.53;;;15.22;100.00
69306;BME280;56427;51.580;4.656;2022-10-15T12:53:05;100491.69;;;15.22;100.00
69306;BME280;56427;51.580;4.656;2022-10-15T12:58:38;100491.47;;;15.48;100.00
69306;BME280;56427;51.580;4.656;2022-10-15T13:04:08;100513.97;;;15.65;100.00
69306;BME280;56427;51.580;4.656;2022-10-15T13:06:35;100514.22;;;15.95;100.00
69306;BME280;56427;51.580;4.656;2022-10-15T13:11:39;100525.56;;;15.79;100.00
69306;BME280;56427;51.580;4.656;2022-10-15T13:14:37;100521.41;;;15.93;100.00
69306;BME280;56427;51.580;4.656;2022-10-15T13:17:13;100519.13;;;16.22;100.00
69306;BME280;56427;51.580;4.656;2022-10-15T13:19:44;100521.13;;;16.19;100.00
69306;BME280;56427;51.580;4.656;2022-10-15T13:22:23;100527.28;;;16.35;100.00
69306;BME280;56427;51.580;4.656;2022-10-15T13:24:49;100518.94;;;16.54;100.00
69306;BME280;56427;51.580;4.656;2022-10-15T13:30:03;100516.97;;;16.33;100.00
69306;BME280;56427;51.580;4.656;2022-10-15T13:32:31;100527.63;;;16.55;100.00
69306;BME280;56427;51.580;4.656;2022-10-15T13:34:58;100523.06;;;16.26;100.00
69306;BME280;56427;51.580;4.656;2022-10-15T13:37:34;100522.81;;;16.12;100.00
69306;BME280;56427;51.580;4.656;2022-10-15T13:40:03;100526.91;;;16.07;100.00
69306;BME280;56427;51.580;4.656;2022-10-15T13:42:29;100528.38;;;16.09;100.00
69306;BME280;56427;51.580;4.656;2022-10-15T13:45:24;100537.13;;;16.25;100.00
69306;BME280;56427;51.580;4.656;2022-10-15T13:47:51;100534.34;;;16.26;100.00
69306;BME280;56427;51.580;4.656;2022-10-15T13:52:49;100540.53;;;16.33;100.00
69306;BME280;56427;51.580;4.656;2022-10-15T13:55:27;100545.59;;;16.35;100.00
69306;BME280;56427;51.580;4.656;2022-10-15T13:57:58;100541.75;;;16.14;100.00
69306;BME280;56427;51.580;4.656;2022-10-15T14:00:35;100545.19;;;16.15;100.00
69306;BME280;56427;51.580;4.656;2022-10-15T14:03:18;100545.97;;;16.24;100.00
69306;BME280;56427;51.580;4.656;2022-10-15T14:05:45;100554.09;;;16.06;100.00
69306;BME280;56427;51.580;4.656;2022-10-15T14:08:34;100554.19;;;16.21;100.00
69306;BME280;56427;51.580;4.656;2022-10-15T14:11:00;100550.50;;;16.30;100.00
69306;BME280;56427;51.580;4.656;2022-10-15T14:13:26;100566.88;;;16.63;100.00
69306;BME280;56427;51.580;4.656;2022-10-15T14:16:10;100568.75;;;16.78;100.00
69306;BME280;56427;51.580;4.656;2022-10-15T14:18:40;100569.75;;;16.45;100.00
69306;BME280;56427;51.580;4.656;2022-10-15T14:21:11;100565.31;;;16.46;100.00
69306;BME280;56427;51.580;4.656;2022-10-15T14:23:37;100565.28;;;16.54;100.00
69306;BME280;56427;51.580;4.656;2022-10-15T14:26:03;100565.78;;;16.49;100.00
69306;BME280;56427;51.580;4.656;2022-10-15T14:28:30;100569.72;;;16.53;100.00
69306;BME280;56427;51.580;4.656;2022-10-15T14:30:57;100569.03;;;16.28;100.00
69306;BME280;56427;51.580;4.656;2022-10-15T14:36:04;100572.53;;;16.44;100.00
69306;BME280;56427;51.580;4.656;2022-10-15T14:38:30;100566.69;;;16.42;100.00